Date,TemperatureHighF,TemperatureAvgF,TemperatureLowF,DewpointHighF,DewpointAvgF,DewpointLowF,HumidityHigh,HumidityAvg,HumidityLow,PressureMaxIn,PressureMinIn,WindSpeedMaxMPH,WindSpeedAvgMPH,GustSpeedMaxMPH,PrecipitationSumIn
2013-11-1,59.1,52.3,46.9,47.5,45.0,42.3,96,78,56,29.85,29.61,14,4,23,0.00
2013-11-2,53.4,48.2,41.7,43.5,40.9,36.9,91,77,54,30.18,29.84,15,5,25,0.01
2013-11-3,58.2,45.2,33.0,42.8,37.3,32.0,98,77,43,30.30,30.15,3,1,11,0.01
2013-11-4,61.9,52.1,46.0,48.3,43.2,38.6,80,72,56,30.21,30.09,3,1,13,0.00
2013-11-5,59.8,55.9,52.1,55.0,51.6,48.0,97,86,76,30.25,29.97,3,1,10,0.28
2013-11-6,58.4,49.0,38.9,57.5,46.0,36.1,97,89,76,30.27,29.89,17,6,27,0.34
2013-11-7,55.7,43.5,33.5,39.9,35.7,32.0,96,76,45,30.39,30.27,10,3,16,0.00
2013-11-8,58.7,45.7,31.3,40.4,35.2,29.8,96,70,36,30.38,30.06,5,1,16,0.00
2013-11-9,67.4,55.0,45.0,45.1,39.8,36.9,75,58,33,30.24,30.04,9,3,24,0.00
2013-11-10,54.9,47.3,40.6,40.2,34.5,30.7,88,62,42,30.43,30.24,10,3,16,0.00
2013-11-11,62.9,46.4,33.0,49.7,40.0,29.8,90,79,58,30.52,30.11,13,4,24,0.11
2013-11-12,36.3,30.7,25.3,30.3,20.6,15.9,89,67,44,30.79,30.52,12,5,24,0.00
2013-11-13,47.9,30.1,21.3,23.0,19.4,16.1,91,68,30,30.72,30.31,4,0,11,0.00
2013-11-14,60.8,43.4,28.3,28.9,22.4,15.0,75,47,20,30.31,30.04,8,2,20,0.00
2013-11-15,57.8,47.8,41.8,42.3,35.7,27.2,87,64,42,30.06,29.92,3,1,10,0.01
2013-11-16,64.9,57.3,44.5,60.6,53.1,40.9,92,86,75,29.92,29.60,7,2,20,0.02
2013-11-17,77.3,63.9,49.5,66.0,50.6,27.3,96,66,25,29.96,29.34,19,7,43,0.21
2013-11-18,55.1,46.8,38.9,41.4,35.4,26.3,88,67,33,30.31,29.96,15,4,24,0.00
2013-11-19,48.1,39.5,33.2,34.3,30.5,27.9,84,71,47,30.37,30.22,4,1,9,0.00
2013-11-20,48.1,40.3,33.2,42.0,35.3,28.9,91,82,67,30.23,30.03,5,1,9,0.15
2013-11-21,50.6,48.5,45.3,49.1,47.0,41.6,98,94,79,30.20,30.08,4,0,8,0.40
2013-11-22,49.2,38.9,35.6,48.7,36.0,31.6,98,89,83,30.55,30.20,16,8,22,0.01
2013-11-23,35.6,29.0,19.9,32.1,20.1,12.5,87,70,52,30.76,30.54,16,8,25,0.01
2013-11-24,29.6,23.0,16.6,19.1,13.5,9.6,81,67,45,30.80,30.46,6,2,11,0.00
2013-11-25,36.1,32.7,27.5,25.4,20.2,16.5,69,60,49,30.46,30.18,5,1,13,0.00
2013-11-26,38.6,33.0,24.5,29.4,23.8,12.9,80,69,57,30.29,30.10,19,7,29,0.00
2013-11-27,29.4,23.6,18.9,16.2,12.0,9.2,73,61,46,30.40,30.27,14,6,20,0.00
2013-11-28,45.3,33.0,20.8,28.4,20.3,13.0,75,60,46,30.51,30.26,10,3,20,0.00
2013-11-29,46.1,35.0,25.7,28.6,24.3,20.0,81,66,47,30.61,30.39,6,2,11,0.00
2013-11-30,58.9,41.8,29.0,39.6,33.1,25.9,91,73,47,30.39,30.08,3,1,9,0.00